sensor_id;sensor_type;location;lat;lon;timestamp;P1;durP1;ratioP1;P2;durP2;ratioP2
6109;SDS011;3085;49.444;11.054;2023-08-20T00:00:53;13.90;;;6.90;;
6109;SDS011;3085;49.444;11.054;2023-08-20T00:03:23;13.30;;;6.60;;
6109;SDS011;3085;49.444;11.054;2023-08-20T00:05:50;7.03;;;5.50;;
6109;SDS011;3085;49.444;11.054;2023-08-20T00:08:18;14.70;;;5.70;;
6109;SDS011;3085;49.444;11.054;2023-08-20T00:10:45;12.53;;;5.70;;
6109;SDS011;3085;49.444;11.054;2023-08-20T00:13:11;13.77;;;6.00;;
6109;SDS011;3085;49.444;11.054;2023-08-20T00:15:39;14.80;;;6.20;;
6109;SDS011;3085;49.444;11.054;2023-08-20T00:18:06;10.43;;;5.47;;
6109;SDS011;3085;49.444;11.054;2023-08-20T00:20:35;8.93;;;5.70;;
6109;SDS011;3085;49.444;11.054;2023-08-20T00:23:03;9.47;;;5.97;;
6109;SDS011;3085;49.444;11.054;2023-08-20T00:25:31;8.17;;;5.43;;
6109;SDS011;3085;49.444;11.054;2023-08-20T00:27:59;8.57;;;5.40;;
6109;SDS011;3085;49.444;11.054;2023-08-20T00:30:26;9.20;;;5.50;;
6109;SDS011;3085;49.444;11.054;2023-08-20T00:32:53;13.43;;;5.97;;
6109;SDS011;3085;49.444;11.054;2023-08-20T00:35:20;14.77;;;5.60;;
6109;SDS011;3085;49.444;11.054;2023-08-20T00:37:49;14.00;;;6.00;;
6109;SDS011;3085;49.444;11.054;2023-08-20T00:40:17;8.40;;;5.03;;
6109;SDS011;3085;49.444;11.054;2023-08-20T00:42:44;14.77;;;7.30;;
6109;SDS011;3085;49.444;11.054;2023-08-20T00:45:10;12.30;;;5.60;;
6109;SDS011;3085;49.444;11.054;2023-08-20T00:47:37;11.23;;;5.73;;
6109;SDS011;3085;49.444;11.054;2023-08-20T00:50:04;11.87;;;6.17;;
6109;SDS011;3085;49.444;11.054;2023-08-20T00:52:33;11.03;;;6.80;;
6109;SDS011;3085;49.444;11.054;2023-08-20T00:55:02;10.37;;;5.60;;
6109;SDS011;3085;49.444;11.054;2023-08-20T00:57:34;11.23;;;5.90;;
6109;SDS011;3085;49.444;11.054;2023-08-20T01:00:02;7.50;;;5.37;;
6109;SDS011;3085;49.444;11.054;2023-08-20T01:02:34;16.20;;;6.87;;
6109;SDS011;3085;49.444;11.054;2023-08-20T01:05:01;19.13;;;5.50;;
6109;SDS011;3085;49.444;11.054;2023-08-20T01:07:30;9.70;;;5.30;;
6109;SDS011;3085;49.444;11.054;2023-08-20T01:10:06;10.97;;;5.03;;
6109;SDS011;3085;49.444;11.054;2023-08-20T01:12:39;9.50;;;5.10;;
6109;SDS011;3085;49.444;11.054;2023-08-20T01:15:07;10.33;;;5.90;;
6109;SDS011;3085;49.444;11.054;2023-08-20T01:17:38;13.37;;;6.80;;
6109;SDS011;3085;49.444;11.054;2023-08-20T01:20:06;9.77;;;5.50;;
6109;SDS011;3085;49.444;11.054;2023-08-20T01:22:46;12.93;;;6.70;;
6109;SDS011;3085;49.444;11.054;2023-08-20T01:25:39;11.87;;;6.20;;
6109;SDS011;3085;49.444;11.054;2023-08-20T01:28:25;10.27;;;6.00;;
6109;SDS011;3085;49.444;11.054;2023-08-20T01:30:53;13.93;;;6.30;;
6109;SDS011;3085;49.444;11.054;2023-08-20T01:33:22;12.23;;;6.47;;
6109;SDS011;3085;49.444;11.054;2023-08-20T01:35:49;11.20;;;6.53;;
6109;SDS011;3085;49.444;11.054;2023-08-20T01:38:16;13.13;;;6.73;;
6109;SDS011;3085;49.444;11.054;2023-08-20T01:40:43;11.10;;;6.23;;
6109;SDS011;3085;49.444;11.054;2023-08-20T01:43:10;14.53;;;5.63;;
6109;SDS011;3085;49.444;11.054;2023-08-20T01:45:38;13.00;;;5.67;;
6109;SDS011;3085;49.444;11.054;2023-08-20T01:48:14;23.37;;;6.77;;
6109;SDS011;3085;49.444;11.054;2023-08-20T01:50:40;7.90;;;6.20;;
6109;SDS011;3085;49.444;11.054;2023-08-20T01:53:07;15.93;;;6.90;;
6109;SDS011;3085;49.444;11.054;2023-08-20T01:55:34;9.07;;;6.47;;
6109;SDS011;3085;49.444;11.054;2023-08-20T01:58:01;12.33;;;7.03;;
6109;SDS011;3085;49.444;11.054;2023-08-20T02:00:28;11.63;;;6.87;;
6109;SDS011;3085;49.444;11.054;2023-08-20T02:02:57;9.57;;;5.87;;
6109;SDS011;3085;49.444;11.054;2023-08-20T02:05:23;11.23;;;6.63;;
6109;SDS011;3085;49.444;11.054;2023-08-20T02:07:50;15.43;;;6.23;;
6109;SDS011;3085;49.444;11.054;2023-08-20T02:10:17;8.10;;;6.00;;
6109;SDS011;3085;49.444;11.054;2023-08-20T02:12:44;9.97;;;6.40;;
6109;SDS011;3085;49.444;11.054;2023-08-20T02:15:10;14.53;;;5.47;;
6109;SDS011;3085;49.444;11.054;2023-08-20T02:17:37;12.70;;;5.70;;
6109;SDS011;3085;49.444;11.054;2023-08-20T02:20:06;12.13;;;6.53;;
6109;SDS011;3085;49.444;11.054;2023-08-20T02:22:34;14.60;;;5.80;;
6109;SDS011;3085;49.444;11.054;2023-08-20T02:25:01;9.23;;;6.30;;
6109;SDS011;3085;49.444;11.054;2023-08-20T02:27:28;12.20;;;6.20;;
6109;SDS011;3085;49.444;11.054;2023-08-20T02:29:55;13.30;;;7.03;;
6109;SDS011;3085;49.444;11.054;2023-08-20T02:32:22;9.40;;;5.83;;
6109;SDS011;3085;49.444;11.054;2023-08-20T02:34:50;12.07;;;6.70;;
6109;SDS011;3085;49.444;11.054;2023-08-20T02:37:18;14.83;;;6.57;;
6109;SDS011;3085;49.444;11.054;2023-08-20T02:39:45;11.10;;;6.90;;
6109;SDS011;3085;49.444;11.054;2023-08-20T02:42:11;9.67;;;5.80;;
6109;SDS011;3085;49.444;11.054;2023-08-20T02:44:38;11.33;;;6.90;;
6109;SDS011;3085;49.444;11.054;2023-08-20T02:47:05;8.87;;;6.20;;
6109;SDS011;3085;49.444;11.054;2023-08-20T02:49:32;14.10;;;7.47;;
6109;SDS011;3085;49.444;11.054;2023-08-20T02:51:59;10.73;;;6.13;;
6109;SDS011;3085;49.444;11.054;2023-08-20T02:54:27;9.03;;;6.00;;
6109;SDS011;3085;49.444;11.054;2023-08-20T02:56:54;10.27;;;6.00;;
6109;SDS011;3085;49.444;11.054;2023-08-20T02:59:20;11.67;;;6.43;;
6109;SDS011;3085;49.444;11.054;2023-08-20T03:01:47;14.00;;;6.50;;
6109;SDS011;3085;49.444;11.054;2023-08-20T03:04:14;13.30;;;5.90;;
6109;SDS011;3085;49.444;11.054;2023-08-20T03:06:41;9.60;;;6.27;;
6109;SDS011;3085;49.444;11.054;2023-08-20T03:09:09;9.53;;;5.80;;
6109;SDS011;3085;49.444;11.054;2023-08-20T03:11:37;18.10;;;5.60;;
6109;SDS011;3085;49.444;11.054;2023-08-20T03:14:04;13.37;;;6.33;;
6109;SDS011;3085;49.444;11.054;2023-08-20T03:16:30;14.00;;;5.87;;
6109;SDS011;3085;49.444;11.054;2023-08-20T03:18:57;13.03;;;6.33;;
6109;SDS011;3085;49.444;11.054;2023-08-20T03:21:24;9.80;;;5.97;;
6109;SDS011;3085;49.444;11.054;2023-08-20T03:23:50;9.00;;;5.30;;
6109;SDS011;3085;49.444;11.054;2023-08-20T03:26:17;15.03;;;5.90;;
6109;SDS011;3085;49.444;11.054;2023-08-20T03:28:45;8.17;;;5.93;;
6109;SDS011;3085;49.444;11.054;2023-08-20T03:31:12;14.43;;;5.90;;
6109;SDS011;3085;49.444;11.054;2023-08-20T03:33:39;7.90;;;5.03;;
6109;SDS011;3085;49.444;11.054;2023-08-20T03:36:05;17.67;;;5.80;;
6109;SDS011;3085;49.444;11.054;2023-08-20T03:38:32;11.20;;;6.43;;
6109;SDS011;3085;49.444;11.054;2023-08-20T03:40:59;11.80;;;6.70;;
6109;SDS011;3085;49.444;11.054;2023-08-20T03:43:25;13.17;;;6.20;;
6109;SDS011;3085;49.444;11.054;2023-08-20T03:45:54;13.70;;;5.40;;
6109;SDS011;3085;49.444;11.054;2023-08-20T03:48:20;16.63;;;5.40;;
6109;SDS011;3085;49.444;11.054;2023-08-20T03:50:47;10.93;;;6.23;;
6109;SDS011;3085;49.444;11.054;2023-08-20T03:53:14;9.43;;;5.73;;
6109;SDS011;3085;49.444;11.054;2023-08-20T03:55:41;9.90;;;5.63;;
6109;SDS011;3085;49.444;11.054;2023-08-20T03:58:07;9.73;;;6.47;;
6109;SDS011;3085;49.444;11.054;2023-08-20T04:00:34;10.83;;;5.90;;
6109;SDS011;3085;49.444;11.054;2023-08-20T04:03:03;9.37;;;5.43;;
6109;SDS011;3085;49.444;11.054;2023-08-20T04:05:35;10.83;;;6.30;;
6109;SDS011;3085;49.444;11.054;2023-08-20T04:08:02;18.83;;;6.00;;
6109;SDS011;3085;49.444;11.054;2023-08-20T04:10:29;10.93;;;5.90;;
6109;SDS011;3085;49.444;11.054;2023-08-20T04:12:56;6.70;;;5.23;;
6109;SDS011;3085;49.444;11.054;2023-08-20T04:15:22;10.60;;;5.93;;
6109;SDS011;3085;49.444;11.054;2023-08-20T04:17:49;12.43;;;6.50;;
6109;SDS011;3085;49.444;11.054;2023-08-20T04:20:17;11.03;;;5.77;;
6109;SDS011;3085;49.444;11.054;2023-08-20T04:22:44;9.33;;;5.43;;
6109;SDS011;3085;49.444;11.054;2023-08-20T04:25:11;14.93;;;5.40;;
6109;SDS011;3085;49.444;11.054;2023-08-20T04:27:38;12.93;;;6.43;;
6109;SDS011;3085;49.444;11.054;2023-08-20T04:30:05;9.60;;;6.47;;
6109;SDS011;3085;49.444;11.054;2023-08-20T04:32:32;7.90;;;6.13;;
6109;SDS011;3085;49.444;11.054;2023-08-20T04:34:59;11.93;;;6.07;;
6109;SDS011;3085;49.444;11.054;2023-08-20T04:37:27;8.50;;;5.80;;
6109;SDS011;3085;49.444;11.054;2023-08-20T04:39:54;10.70;;;6.70;;
6109;SDS011;3085;49.444;11.054;2023-08-20T04:42:21;9.17;;;5.80;;
6109;SDS011;3085;49.444;11.054;2023-08-20T04:44:48;9.17;;;5.27;;
6109;SDS011;3085;49.444;11.054;2023-08-20T04:47:15;7.37;;;5.47;;
6109;SDS011;3085;49.444;11.054;2023-08-20T04:49:41;9.07;;;5.53;;
6109;SDS011;3085;49.444;11.054;2023-08-20T04:52:08;10.10;;;5.90;;
6109;SDS011;3085;49.444;11.054;2023-08-20T04:54:36;8.97;;;5.40;;
6109;SDS011;3085;49.444;11.054;2023-08-20T04:57:03;8.60;;;5.17;;
6109;SDS011;3085;49.444;11.054;2023-08-20T04:59:30;14.10;;;7.20;;
6109;SDS011;3085;49.444;11.054;2023-08-20T05:01:57;21.23;;;7.67;;
6109;SDS011;3085;49.444;11.054;2023-08-20T05:04:24;12.87;;;6.57;;
6109;SDS011;3085;49.444;11.054;2023-08-20T05:06:50;14.90;;;6.43;;
6109;SDS011;3085;49.444;11.054;2023-08-20T05:09:19;11.80;;;6.10;;
6109;SDS011;3085;49.444;11.054;2023-08-20T05:11:48;11.17;;;5.80;;
6109;SDS011;3085;49.444;11.054;2023-08-20T05:14:14;13.40;;;6.10;;
6109;SDS011;3085;49.444;11.054;2023-08-20T05:16:41;11.30;;;6.20;;
6109;SDS011;3085;49.444;11.054;2023-08-20T05:19:08;8.83;;;6.00;;
6109;SDS011;3085;49.444;11.054;2023-08-20T05:21:35;11.40;;;6.43;;
6109;SDS011;3085;49.444;11.054;2023-08-20T05:24:02;11.43;;;7.23;;
6109;SDS011;3085;49.444;11.054;2023-08-20T05:26:29;16.13;;;6.47;;
6109;SDS011;3085;49.444;11.054;2023-08-20T05:28:57;20.93;;;6.70;;
6109;SDS011;3085;49.444;11.054;2023-08-20T05:31:24;11.17;;;7.30;;
6109;SDS011;3085;49.444;11.054;2023-08-20T05:33:50;10.70;;;7.03;;
6109;SDS011;3085;49.444;11.054;2023-08-20T05:36:17;13.50;;;7.73;;
6109;SDS011;3085;49.444;11.054;2023-08-20T05:38:44;16.97;;;7.90;;
6109;SDS011;3085;49.444;11.054;2023-08-20T05:41:11;17.17;;;6.60;;
6109;SDS011;3085;49.444;11.054;2023-08-20T05:43:37;13.33;;;7.50;;
6109;SDS011;3085;49.444;11.054;2023-08-20T05:46:05;19.30;;;6.93;;
6109;SDS011;3085;49.444;11.054;2023-08-20T05:48:32;12.37;;;7.03;;
6109;SDS011;3085;49.444;11.054;2023-08-20T05:50:59;12.60;;;7.03;;
6109;SDS011;3085;49.444;11.054;2023-08-20T05:53:26;11.97;;;7.57;;
6109;SDS011;3085;49.444;11.054;2023-08-20T05:55:54;14.77;;;7.60;;
6109;SDS011;3085;49.444;11.054;2023-08-20T05:58:20;9.77;;;6.73;;
6109;SDS011;3085;49.444;11.054;2023-08-20T06:00:47;13.00;;;7.23;;
6109;SDS011;3085;49.444;11.054;2023-08-20T06:03:15;15.80;;;7.50;;
6109;SDS011;3085;49.444;11.054;2023-08-20T06:05:42;9.83;;;6.50;;
6109;SDS011;3085;49.444;11.054;2023-08-20T06:08:09;11.47;;;7.17;;
6109;SDS011;3085;49.444;11.054;2023-08-20T06:10:35;10.40;;;7.03;;
6109;SDS011;3085;49.444;11.054;2023-08-20T06:13:02;13.13;;;7.40;;
6109;SDS011;3085;49.444;11.054;2023-08-20T06:15:30;13.00;;;6.70;;
6109;SDS011;3085;49.444;11.054;2023-08-20T06:17:56;14.67;;;6.13;;
6109;SDS011;3085;49.444;11.054;2023-08-20T06:20:24;13.70;;;7.20;;
6109;SDS011;3085;49.444;11.054;2023-08-20T06:22:51;11.30;;;7.50;;
6109;SDS011;3085;49.444;11.054;2023-08-20T06:25:18;13.70;;;7.10;;
6109;SDS011;3085;49.444;11.054;2023-08-20T06:27:45;10.00;;;7.60;;
6109;SDS011;3085;49.444;11.054;2023-08-20T06:30:12;12.47;;;8.07;;
6109;SDS011;3085;49.444;11.054;2023-08-20T06:32:39;9.93;;;7.70;;
6109;SDS011;3085;49.444;11.054;2023-08-20T06:35:06;13.20;;;6.27;;
6109;SDS011;3085;49.444;11.054;2023-08-20T06:37:36;9.80;;;7.50;;
6109;SDS011;3085;49.444;11.054;2023-08-20T06:40:04;12.80;;;7.53;;
6109;SDS011;3085;49.444;11.054;2023-08-20T06:42:32;12.63;;;7.20;;
6109;SDS011;3085;49.444;11.054;2023-08-20T06:44:59;21.97;;;8.63;;
6109;SDS011;3085;49.444;11.054;2023-08-20T06:47:26;12.80;;;7.77;;
6109;SDS011;3085;49.444;11.054;2023-08-20T06:49:53;13.00;;;6.63;;
6109;SDS011;3085;49.444;11.054;2023-08-20T06:52:19;10.30;;;6.97;;
6109;SDS011;3085;49.444;11.054;2023-08-20T06:54:47;11.10;;;7.20;;
6109;SDS011;3085;49.444;11.054;2023-08-20T06:57:14;9.73;;;6.73;;
6109;SDS011;3085;49.444;11.054;2023-08-20T06:59:41;14.87;;;8.13;;
6109;SDS011;3085;49.444;11.054;2023-08-20T07:02:08;12.53;;;5.97;;
6109;SDS011;3085;49.444;11.054;2023-08-20T07:04:36;12.87;;;7.70;;
6109;SDS011;3085;49.444;11.054;2023-08-20T07:07:03;9.97;;;6.33;;
6109;SDS011;3085;49.444;11.054;2023-08-20T07:09:30;8.80;;;6.63;;
6109;SDS011;3085;49.444;11.054;2023-08-20T07:11:59;10.97;;;7.40;;
6109;SDS011;3085;49.444;11.054;2023-08-20T07:14:25;11.07;;;7.10;;
6109;SDS011;3085;49.444;11.054;2023-08-20T07:16:52;10.93;;;7.60;;
6109;SDS011;3085;49.444;11.054;2023-08-20T07:19:19;9.00;;;6.40;;
6109;SDS011;3085;49.444;11.054;2023-08-20T07:21:46;14.53;;;7.33;;
6109;SDS011;3085;49.444;11.054;2023-08-20T07:24:12;11.57;;;6.97;;
6109;SDS011;3085;49.444;11.054;2023-08-20T07:26:39;11.87;;;7.37;;
6109;SDS011;3085;49.444;11.054;2023-08-20T07:29:07;12.77;;;6.97;;
6109;SDS011;3085;49.444;11.054;2023-08-20T07:31:34;13.90;;;7.40;;
6109;SDS011;3085;49.444;11.054;2023-08-20T07:34:02;8.40;;;5.07;;
6109;SDS011;3085;49.444;11.054;2023-08-20T07:36:29;12.33;;;5.93;;
6109;SDS011;3085;49.444;11.054;2023-08-20T07:38:56;9.53;;;6.70;;
6109;SDS011;3085;49.444;11.054;2023-08-20T07:41:23;8.37;;;5.57;;
6109;SDS011;3085;49.444;11.054;2023-08-20T07:43:50;7.43;;;6.10;;
6109;SDS011;3085;49.444;11.054;2023-08-20T07:46:19;7.97;;;5.50;;
6109;SDS011;3085;49.444;11.054;2023-08-20T07:48:46;11.53;;;6.63;;
6109;SDS011;3085;49.444;11.054;2023-08-20T07:51:13;27.73;;;5.87;;
6109;SDS011;3085;49.444;11.054;2023-08-20T07:53:40;12.40;;;5.83;;
6109;SDS011;3085;49.444;11.054;2023-08-20T07:56:07;18.70;;;6.70;;
6109;SDS011;3085;49.444;11.054;2023-08-20T07:58:34;10.93;;;5.87;;
6109;SDS011;3085;49.444;11.054;2023-08-20T08:01:01;9.20;;;6.37;;
6109;SDS011;3085;49.444;11.054;2023-08-20T08:03:30;15.07;;;5.63;;
6109;SDS011;3085;49.444;11.054;2023-08-20T08:05:56;7.73;;;5.80;;
6109;SDS011;3085;49.444;11.054;2023-08-20T08:08:23;9.87;;;5.13;;
6109;SDS011;3085;49.444;11.054;2023-08-20T08:10:50;9.80;;;5.03;;
6109;SDS011;3085;49.444;11.054;2023-08-20T08:13:19;6.33;;;5.10;;
6109;SDS011;3085;49.444;11.054;2023-08-20T08:15:47;8.37;;;5.93;;
6109;SDS011;3085;49.444;11.054;2023-08-20T08:18:14;5.70;;;4.87;;
6109;SDS011;3085;49.444;11.054;2023-08-20T08:20:43;16.53;;;5.63;;
6109;SDS011;3085;49.444;11.054;2023-08-20T08:23:10;12.03;;;6.17;;
6109;SDS011;3085;49.444;11.054;2023-08-20T08:25:37;8.67;;;5.80;;
6109;SDS011;3085;49.444;11.054;2023-08-20T08:28:04;7.50;;;5.23;;
6109;SDS011;3085;49.444;11.054;2023-08-20T08:30:32;11.13;;;5.27;;
6109;SDS011;3085;49.444;11.054;2023-08-20T08:32:59;9.77;;;4.70;;
6109;SDS011;3085;49.444;11.054;2023-08-20T08:35:25;8.67;;;5.83;;
6109;SDS011;3085;49.444;11.054;2023-08-20T08:37:54;18.30;;;5.13;;
6109;SDS011;3085;49.444;11.054;2023-08-20T08:40:22;9.60;;;5.33;;
6109;SDS011;3085;49.444;11.054;2023-08-20T08:42:53;7.10;;;4.50;;
6109;SDS011;3085;49.444;11.054;2023-08-20T08:45:20;8.90;;;4.43;;
6109;SDS011;3085;49.444;11.054;2023-08-20T08:47:47;9.10;;;4.70;;
6109;SDS011;3085;49.444;11.054;2023-08-20T08:50:17;8.70;;;4.27;;
6109;SDS011;3085;49.444;11.054;2023-08-20T08:52:44;7.40;;;4.90;;
6109;SDS011;3085;49.444;11.054;2023-08-20T08:55:13;6.93;;;4.40;;
6109;SDS011;3085;49.444;11.054;2023-08-20T08:57:40;11.60;;;4.20;;
6109;SDS011;3085;49.444;11.054;2023-08-20T09:00:07;10.80;;;5.00;;
6109;SDS011;3085;49.444;11.054;2023-08-20T09:02:35;9.63;;;4.83;;
6109;SDS011;3085;49.444;11.054;2023-08-20T09:05:02;8.63;;;4.63;;
6109;SDS011;3085;49.444;11.054;2023-08-20T09:07:31;13.20;;;5.47;;
6109;SDS011;3085;49.444;11.054;2023-08-20T09:09:58;11.00;;;5.13;;
6109;SDS011;3085;49.444;11.054;2023-08-20T09:12:27;8.43;;;4.80;;
6109;SDS011;3085;49.444;11.054;2023-08-20T09:14:53;7.13;;;4.40;;
6109;SDS011;3085;49.444;11.054;2023-08-20T09:17:25;8.43;;;5.50;;
6109;SDS011;3085;49.444;11.054;2023-08-20T09:19:53;24.13;;;5.50;;
6109;SDS011;3085;49.444;11.054;2023-08-20T09:22:21;10.50;;;5.47;;
6109;SDS011;3085;49.444;11.054;2023-08-20T09:24:52;5.90;;;4.10;;
6109;SDS011;3085;49.444;11.054;2023-08-20T09:27:19;8.53;;;4.00;;
6109;SDS011;3085;49.444;11.054;2023-08-20T09:29:48;10.43;;;4.43;;
6109;SDS011;3085;49.444;11.054;2023-08-20T09:32:16;6.87;;;4.17;;
6109;SDS011;3085;49.444;11.054;2023-08-20T09:34:44;14.13;;;4.17;;
6109;SDS011;3085;49.444;11.054;2023-08-20T09:37:12;7.93;;;4.87;;
6109;SDS011;3085;49.444;11.054;2023-08-20T09:39:39;12.90;;;5.23;;
6109;SDS011;3085;49.444;11.054;2023-08-20T09:42:07;5.97;;;3.80;;
6109;SDS011;3085;49.444;11.054;2023-08-20T09:44:34;21.00;;;4.70;;
6109;SDS011;3085;49.444;11.054;2023-08-20T09:47:05;10.37;;;4.50;;
6109;SDS011;3085;49.444;11.054;2023-08-20T09:49:35;8.13;;;4.70;;
6109;SDS011;3085;49.444;11.054;2023-08-20T09:52:04;6.73;;;4.23;;
6109;SDS011;3085;49.444;11.054;2023-08-20T09:54:35;8.37;;;3.73;;
6109;SDS011;3085;49.444;11.054;2023-08-20T09:57:12;6.43;;;3.50;;
6109;SDS011;3085;49.444;11.054;2023-08-20T09:59:44;4.10;;;3.27;;
6109;SDS011;3085;49.444;11.054;2023-08-20T10:02:14;5.83;;;3.53;;
6109;SDS011;3085;49.444;11.054;2023-08-20T10:04:41;26.23;;;8.80;;
6109;SDS011;3085;49.444;11.054;2023-08-20T10:07:09;7.57;;;4.77;;
6109;SDS011;3085;49.444;11.054;2023-08-20T10:09:37;7.60;;;4.00;;
6109;SDS011;3085;49.444;11.054;2023-08-20T10:12:05;10.73;;;3.93;;
6109;SDS011;3085;49.444;11.054;2023-08-20T10:14:33;6.63;;;4.30;;
6109;SDS011;3085;49.444;11.054;2023-08-20T10:17:05;6.73;;;4.03;;
6109;SDS011;3085;49.444;11.054;2023-08-20T10:19:34;7.67;;;4.13;;
6109;SDS011;3085;49.444;11.054;2023-08-20T10:22:02;5.87;;;3.60;;
6109;SDS011;3085;49.444;11.054;2023-08-20T10:24:29;6.73;;;4.20;;
6109;SDS011;3085;49.444;11.054;2023-08-20T10:27:07;7.40;;;3.83;;
6109;SDS011;3085;49.444;11.054;2023-08-20T10:29:35;8.97;;;4.00;;
6109;SDS011;3085;49.444;11.054;2023-08-20T10:32:03;5.07;;;3.77;;
6109;SDS011;3085;49.444;11.054;2023-08-20T10:34:36;6.53;;;3.53;;
6109;SDS011;3085;49.444;11.054;2023-08-20T10:37:11;7.00;;;3.63;;
6109;SDS011;3085;49.444;11.054;2023-08-20T10:39:39;8.97;;;3.63;;
6109;SDS011;3085;49.444;11.054;2023-08-20T10:42:21;6.63;;;3.80;;
6109;SDS011;3085;49.444;11.054;2023-08-20T10:44:56;4.50;;;3.97;;
6109;SDS011;3085;49.444;11.054;2023-08-20T10:47:24;7.97;;;4.60;;
6109;SDS011;3085;49.444;11.054;2023-08-20T10:49:53;6.57;;;4.00;;
6109;SDS011;3085;49.444;11.054;2023-08-20T10:52:22;6.93;;;4.00;;
6109;SDS011;3085;49.444;11.054;2023-08-20T10:54:49;6.93;;;4.00;;
6109;SDS011;3085;49.444;11.054;2023-08-20T10:57:17;8.03;;;3.97;;
6109;SDS011;3085;49.444;11.054;2023-08-20T10:59:55;5.67;;;4.03;;
6109;SDS011;3085;49.444;11.054;2023-08-20T11:02:24;4.77;;;3.53;;
6109;SDS011;3085;49.444;11.054;2023-08-20T11:04:53;10.00;;;3.77;;
6109;SDS011;3085;49.444;11.054;2023-08-20T11:07:20;11.40;;;3.77;;
6109;SDS011;3085;49.444;11.054;2023-08-20T11:09:50;6.67;;;3.63;;
6109;SDS011;3085;49.444;11.054;2023-08-20T11:12:19;9.43;;;3.73;;
6109;SDS011;3085;49.444;11.054;2023-08-20T11:14:46;10.00;;;4.00;;
6109;SDS011;3085;49.444;11.054;2023-08-20T11:17:13;7.33;;;4.20;;
6109;SDS011;3085;49.444;11.054;2023-08-20T11:19:40;10.77;;;3.63;;
6109;SDS011;3085;49.444;11.054;2023-08-20T11:22:09;7.00;;;4.33;;
6109;SDS011;3085;49.444;11.054;2023-08-20T11:24:36;5.80;;;3.50;;
6109;SDS011;3085;49.444;11.054;2023-08-20T11:27:04;9.30;;;4.50;;
6109;SDS011;3085;49.444;11.054;2023-08-20T11:29:31;7.70;;;4.70;;
6109;SDS011;3085;49.444;11.054;2023-08-20T11:31:58;9.83;;;5.13;;
6109;SDS011;3085;49.444;11.054;2023-08-20T11:34:28;6.60;;;4.07;;
6109;SDS011;3085;49.444;11.054;2023-08-20T11:36:55;8.50;;;3.57;;
6109;SDS011;3085;49.444;11.054;2023-08-20T11:39:24;5.37;;;3.90;;
6109;SDS011;3085;49.444;11.054;2023-08-20T11:41:51;5.00;;;3.70;;
6109;SDS011;3085;49.444;11.054;2023-08-20T11:44:21;9.23;;;4.37;;
6109;SDS011;3085;49.444;11.054;2023-08-20T11:46:48;8.17;;;3.47;;
6109;SDS011;3085;49.444;11.054;2023-08-20T11:49:15;12.10;;;3.33;;
6109;SDS011;3085;49.444;11.054;2023-08-20T11:51:42;12.03;;;3.50;;
6109;SDS011;3085;49.444;11.054;2023-08-20T11:54:11;5.57;;;3.53;;
6109;SDS011;3085;49.444;11.054;2023-08-20T11:56:42;5.07;;;3.30;;
6109;SDS011;3085;49.444;11.054;2023-08-20T11:59:10;6.90;;;3.63;;
6109;SDS011;3085;49.444;11.054;2023-08-20T12:01:37;12.67;;;3.77;;
6109;SDS011;3085;49.444;11.054;2023-08-20T12:04:04;4.70;;;2.97;;
6109;SDS011;3085;49.444;11.054;2023-08-20T12:06:32;7.00;;;3.47;;
6109;SDS011;3085;49.444;11.054;2023-08-20T12:09:00;12.30;;;3.80;;
6109;SDS011;3085;49.444;11.054;2023-08-20T12:11:28;8.27;;;3.40;;
6109;SDS011;3085;49.444;11.054;2023-08-20T12:13:57;5.00;;;3.10;;
6109;SDS011;3085;49.444;11.054;2023-08-20T12:16:24;9.37;;;3.60;;
6109;SDS011;3085;49.444;11.054;2023-08-20T12:18:51;7.50;;;4.03;;
6109;SDS011;3085;49.444;11.054;2023-08-20T12:21:19;8.63;;;3.90;;
6109;SDS011;3085;49.444;11.054;2023-08-20T12:23:45;10.03;;;3.60;;
6109;SDS011;3085;49.444;11.054;2023-08-20T12:26:12;9.33;;;3.70;;
6109;SDS011;3085;49.444;11.054;2023-08-20T12:28:39;5.07;;;3.17;;
6109;SDS011;3085;49.444;11.054;2023-08-20T12:31:08;7.80;;;4.03;;
6109;SDS011;3085;49.444;11.054;2023-08-20T12:33:34;5.80;;;3.23;;
6109;SDS011;3085;49.444;11.054;2023-08-20T12:36:01;8.53;;;3.00;;
6109;SDS011;3085;49.444;11.054;2023-08-20T12:38:28;8.83;;;4.00;;
6109;SDS011;3085;49.444;11.054;2023-08-20T12:40:58;3.93;;;2.83;;
6109;SDS011;3085;49.444;11.054;2023-08-20T12:43:26;9.17;;;2.83;;
6109;SDS011;3085;49.444;11.054;2023-08-20T12:45:52;5.17;;;3.20;;
6109;SDS011;3085;49.444;11.054;2023-08-20T12:48:20;5.20;;;3.10;;
6109;SDS011;3085;49.444;11.054;2023-08-20T12:50:47;11.80;;;3.23;;
6109;SDS011;3085;49.444;11.054;2023-08-20T12:53:14;9.53;;;2.90;;
6109;SDS011;3085;49.444;11.054;2023-08-20T12:55:41;6.00;;;2.97;;
6109;SDS011;3085;49.444;11.054;2023-08-20T12:58:08;5.67;;;3.50;;
6109;SDS011;3085;49.444;11.054;2023-08-20T13:00:35;6.47;;;2.97;;
6109;SDS011;3085;49.444;11.054;2023-08-20T13:03:02;5.00;;;2.90;;
6109;SDS011;3085;49.444;11.054;2023-08-20T13:05:31;3.43;;;2.60;;
6109;SDS011;3085;49.444;11.054;2023-08-20T13:07:58;5.27;;;3.30;;
6109;SDS011;3085;49.444;11.054;2023-08-20T13:10:26;8.00;;;3.50;;
6109;SDS011;3085;49.444;11.054;2023-08-20T13:12:54;7.10;;;3.37;;
6109;SDS011;3085;49.444;11.054;2023-08-20T13:15:26;3.37;;;2.43;;
6109;SDS011;3085;49.444;11.054;2023-08-20T13:17:53;6.57;;;3.37;;
6109;SDS011;3085;49.444;11.054;2023-08-20T13:20:21;6.40;;;3.30;;
6109;SDS011;3085;49.444;11.054;2023-08-20T13:22:50;4.10;;;2.90;;
6109;SDS011;3085;49.444;11.054;2023-08-20T13:25:18;5.83;;;3.20;;
6109;SDS011;3085;49.444;11.054;2023-08-20T13:27:46;5.20;;;3.03;;
6109;SDS011;3085;49.444;11.054;2023-08-20T13:30:13;3.47;;;2.63;;
6109;SDS011;3085;49.444;11.054;2023-08-20T13:32:40;3.03;;;2.73;;
6109;SDS011;3085;49.444;11.054;2023-08-20T13:35:07;3.23;;;2.80;;
6109;SDS011;3085;49.444;11.054;2023-08-20T13:37:34;7.10;;;3.23;;
6109;SDS011;3085;49.444;11.054;2023-08-20T13:40:02;6.80;;;2.87;;
6109;SDS011;3085;49.444;11.054;2023-08-20T13:42:30;10.77;;;3.30;;
6109;SDS011;3085;49.444;11.054;2023-08-20T13:44:56;5.60;;;3.07;;
6109;SDS011;3085;49.444;11.054;2023-08-20T13:47:23;5.47;;;2.47;;
6109;SDS011;3085;49.444;11.054;2023-08-20T13:49:50;5.77;;;3.17;;
6109;SDS011;3085;49.444;11.054;2023-08-20T13:52:17;3.73;;;3.07;;
6109;SDS011;3085;49.444;11.054;2023-08-20T13:54:44;4.33;;;2.70;;
6109;SDS011;3085;49.444;11.054;2023-08-20T13:57:13;4.73;;;2.33;;
6109;SDS011;3085;49.444;11.054;2023-08-20T13:59:40;9.23;;;2.90;;
6109;SDS011;3085;49.444;11.054;2023-08-20T14:02:07;6.80;;;3.60;;
6109;SDS011;3085;49.444;11.054;2023-08-20T14:04:34;3.97;;;2.63;;
6109;SDS011;3085;49.444;11.054;2023-08-20T14:07:01;5.50;;;3.00;;
6109;SDS011;3085;49.444;11.054;2023-08-20T14:09:28;6.10;;;3.30;;
6109;SDS011;3085;49.444;11.054;2023-08-20T14:11:55;7.23;;;3.00;;
6109;SDS011;3085;49.444;11.054;2023-08-20T14:14:23;4.53;;;2.77;;
6109;SDS011;3085;49.444;11.054;2023-08-20T14:16:50;4.83;;;2.60;;
6109;SDS011;3085;49.444;11.054;2023-08-20T14:19:17;3.53;;;2.70;;
6109;SDS011;3085;49.444;11.054;2023-08-20T14:21:46;4.70;;;2.83;;
6109;SDS011;3085;49.444;11.054;2023-08-20T14:24:12;6.03;;;2.73;;
6109;SDS011;3085;49.444;11.054;2023-08-20T14:26:39;7.53;;;2.67;;
6109;SDS011;3085;49.444;11.054;2023-08-20T14:29:06;4.03;;;2.57;;
6109;SDS011;3085;49.444;11.054;2023-08-20T14:31:34;5.07;;;3.03;;
6109;SDS011;3085;49.444;11.054;2023-08-20T14:34:01;7.80;;;3.00;;
6109;SDS011;3085;49.444;11.054;2023-08-20T14:36:28;5.60;;;2.70;;
6109;SDS011;3085;49.444;11.054;2023-08-20T14:38:54;6.93;;;2.97;;
6109;SDS011;3085;49.444;11.054;2023-08-20T14:41:21;4.10;;;2.57;;
6109;SDS011;3085;49.444;11.054;2023-08-20T14:43:48;4.57;;;3.00;;
6109;SDS011;3085;49.444;11.054;2023-08-20T14:46:15;4.90;;;2.70;;
6109;SDS011;3085;49.444;11.054;2023-08-20T14:48:43;6.07;;;3.07;;
6109;SDS011;3085;49.444;11.054;2023-08-20T14:51:10;3.77;;;3.00;;
6109;SDS011;3085;49.444;11.054;2023-08-20T14:53:37;5.93;;;2.77;;
6109;SDS011;3085;49.444;11.054;2023-08-20T14:56:04;5.13;;;3.20;;
6109;SDS011;3085;49.444;11.054;2023-08-20T14:58:31;6.77;;;3.83;;